Cumming, IA (50061)

6:58 AM CDT on May 24, 2015 (GMT -0500)
Norwalk, IA (2mi SW) | | Change Station
CLOSE
Current Station
Personal Weather Station
Location: Norwalk, IA
Elevation: 919 ft
Nearby Weather Stations

Elev 919 ft 41.46 °N, 93.71 °W | Updated 31 seconds ago

Rain
Rain
59.0 °F
Feels Like 59.0 °F
N
8.7
Wind Variable Wind from ESE
Gusts 10.7 mph

Today
High -- | Low -- °F
--% Chance of Precip.
Yesterday
High -- | Low -- °F
Precip. -- in
5:48 AM 8:35 PM
Waxing Crescent, 38% visible
Pressure 29.95 in
Visibility 9.0 miles
Clouds Mostly Cloudy 500 ft
Overcast 1500 ft
Dew Point 59 °F
Humidity 99%
Rainfall 0.62 in
Snow Depth Not available.
UV 0 out of 12
Pollen 1.80 out of 12
Air Quality Not available.
Flu Activity Sporadic
METAR KDSM 241154Z 11010KT 9SM -RA BKN005 OVC015 16/14 A2996 RMK AO2 SLP141 P0027 60059 70060 T01610144 10194 20156 58011

More Conditions Fewer Conditions

Pressure 29.95 in
Visibility 9.0 miles
Clouds Mostly Cloudy 500 ft
Overcast 1500 ft
Dew Point 59 °F
Humidity 99%
Rainfall 0.62 in
Snow Depth Not available.
UV 0 out of 12
Pollen 1.80 out of 12
Air Quality Not available.
Flu Activity Sporadic
METAR KDSM 241154Z 11010KT 9SM -RA BKN005 OVC015 16/14 A2996 RMK AO2 SLP141 P0027 60059 70060 T01610144 10194 20156 58011

More Conditions Fewer Conditions

10-Day Weather Forecast

Almanac

Astronomy

May. 24, 2015 Rise Set
Actual Time
Civil Twilight
Nautical Twilight
Astronomical Twilight
Moon
Length of Visible Light
Length of Day
Tomorrow will be .
, % of the Moon is Illuminated

Today's Extremes

State Highs State Lows

Community

WunderPhotos

Upload Photos

1,823,719 photos uploaded!

WunderBlogs® & News

Nearby

Air Quality

  Air Quality AQ Index Pollutant
Not available.

Snow Depth

Station Depth Elevation

Earthquake Activity

City Distance Mag. Time & Date
Minimum magnitude displayed is 2.5.

Coastal Water Temperatures

Place Temperature

Stations

Nearby Weather Stations

Station Location Temp. Windchill Dew Point Humidity Wind Precip. Elev Updated Type